Ellsworth AFB

About
Name: Ellsworth AFB
Identifier:  RCA/KRCA
Local Time:  21. Sep 04:54 MDT
Location
Statistics
Flights per Day:
0 flights
Distance: 678km (421mi)
Flights delayed:
0% (0 flights per day delayed)
Delay Average: 11 minutes
Current Weather
 11 C (Humidity: 100%)
  3kt (5km/h / 3mph) from 280°
  Few clouds at 14,000 feet (4,267 meter)
  16km (10 mi.)
 METAR KRCA 210956Z AUTO 28003KT 10SM FEW140 11/11 A2978 RMK AO2 VIS 3/8 RWY13 SLP070 T01140114 $

Current Delays

Departures
N/A
Arrivals
N/A

Destinations

Top Destinations
Airport Flights
per week
Seats
per week
  Omaha (OFF) 0 - 0 0

Airlines & Planes

Top Airlines
Airline Flights
per Day
Seats
per Day
  Miami Air International 0 -
Top Plane Types
Model Flights Seats
Boeing B737-800 0.0/day - 0